sensor_id;sensor_type;location;lat;lon;timestamp;temperature;humidity
3348;DHT22;1687;49.540;8.574;2024-02-14T00:02:20;7.80;73.30
3348;DHT22;1687;49.540;8.574;2024-02-14T00:04:47;7.70;73.40
3348;DHT22;1687;49.540;8.574;2024-02-14T00:07:12;7.80;73.60
3348;DHT22;1687;49.540;8.574;2024-02-14T00:09:38;7.80;73.40
3348;DHT22;1687;49.540;8.574;2024-02-14T00:12:04;7.80;73.70
3348;DHT22;1687;49.540;8.574;2024-02-14T00:14:29;7.80;73.70
3348;DHT22;1687;49.540;8.574;2024-02-14T00:16:55;7.80;73.60
3348;DHT22;1687;49.540;8.574;2024-02-14T00:19:22;7.80;73.80
3348;DHT22;1687;49.540;8.574;2024-02-14T00:21:47;7.80;73.70
3348;DHT22;1687;49.540;8.574;2024-02-14T00:24:13;7.80;73.70
3348;DHT22;1687;49.540;8.574;2024-02-14T00:26:39;7.80;73.80
3348;DHT22;1687;49.540;8.574;2024-02-14T00:29:04;7.80;74.00
3348;DHT22;1687;49.540;8.574;2024-02-14T00:31:30;7.90;74.20
3348;DHT22;1687;49.540;8.574;2024-02-14T00:33:56;8.00;74.50
3348;DHT22;1687;49.540;8.574;2024-02-14T00:36:21;8.10;74.50
3348;DHT22;1687;49.540;8.574;2024-02-14T00:38:47;8.10;74.50
3348;DHT22;1687;49.540;8.574;2024-02-14T00:41:13;8.10;74.40
3348;DHT22;1687;49.540;8.574;2024-02-14T00:43:38;8.10;74.30
3348;DHT22;1687;49.540;8.574;2024-02-14T00:46:04;8.10;74.40
3348;DHT22;1687;49.540;8.574;2024-02-14T00:48:31;8.10;74.40
3348;DHT22;1687;49.540;8.574;2024-02-14T00:50:57;8.00;74.20
3348;DHT22;1687;49.540;8.574;2024-02-14T00:53:24;8.00;74.40
3348;DHT22;1687;49.540;8.574;2024-02-14T00:55:50;8.00;74.60
3348;DHT22;1687;49.540;8.574;2024-02-14T00:58:16;7.90;74.50
3348;DHT22;1687;49.540;8.574;2024-02-14T01:00:42;8.00;74.80
3348;DHT22;1687;49.540;8.574;2024-02-14T01:03:08;8.00;74.90
3348;DHT22;1687;49.540;8.574;2024-02-14T01:05:38;8.10;75.30
3348;DHT22;1687;49.540;8.574;2024-02-14T01:08:04;8.20;75.00
3348;DHT22;1687;49.540;8.574;2024-02-14T01:10:30;8.20;75.10
3348;DHT22;1687;49.540;8.574;2024-02-14T01:12:56;8.20;75.00
3348;DHT22;1687;49.540;8.574;2024-02-14T01:15:22;8.20;75.00
3348;DHT22;1687;49.540;8.574;2024-02-14T01:17:48;8.30;75.20
3348;DHT22;1687;49.540;8.574;2024-02-14T01:20:13;8.20;75.00
3348;DHT22;1687;49.540;8.574;2024-02-14T01:22:39;8.20;75.10
3348;DHT22;1687;49.540;8.574;2024-02-14T01:25:05;8.20;75.40
3348;DHT22;1687;49.540;8.574;2024-02-14T01:27:31;8.30;75.30
3348;DHT22;1687;49.540;8.574;2024-02-14T01:29:57;8.30;75.50
3348;DHT22;1687;49.540;8.574;2024-02-14T01:32:23;8.30;75.30
3348;DHT22;1687;49.540;8.574;2024-02-14T01:34:49;8.30;75.40
3348;DHT22;1687;49.540;8.574;2024-02-14T01:37:15;8.30;75.50
3348;DHT22;1687;49.540;8.574;2024-02-14T01:39:40;8.40;75.70
3348;DHT22;1687;49.540;8.574;2024-02-14T01:42:06;8.30;75.50
3348;DHT22;1687;49.540;8.574;2024-02-14T01:44:33;8.40;75.90
3348;DHT22;1687;49.540;8.574;2024-02-14T01:47:00;8.40;75.80
3348;DHT22;1687;49.540;8.574;2024-02-14T01:49:26;8.40;75.80
3348;DHT22;1687;49.540;8.574;2024-02-14T01:51:57;8.50;75.90
3348;DHT22;1687;49.540;8.574;2024-02-14T01:54:25;8.50;75.90
3348;DHT22;1687;49.540;8.574;2024-02-14T01:56:52;8.50;76.00
3348;DHT22;1687;49.540;8.574;2024-02-14T01:59:19;8.50;76.00
3348;DHT22;1687;49.540;8.574;2024-02-14T02:01:46;8.50;75.90
3348;DHT22;1687;49.540;8.574;2024-02-14T02:04:12;8.40;75.80
3348;DHT22;1687;49.540;8.574;2024-02-14T02:06:37;8.40;76.00
3348;DHT22;1687;49.540;8.574;2024-02-14T02:09:03;8.40;76.00
3348;DHT22;1687;49.540;8.574;2024-02-14T02:11:29;8.40;76.20
3348;DHT22;1687;49.540;8.574;2024-02-14T02:13:56;8.40;76.40
3348;DHT22;1687;49.540;8.574;2024-02-14T02:16:21;8.50;76.50
3348;DHT22;1687;49.540;8.574;2024-02-14T02:18:47;8.50;76.50
3348;DHT22;1687;49.540;8.574;2024-02-14T02:21:15;8.60;76.50
3348;DHT22;1687;49.540;8.574;2024-02-14T02:23:40;8.50;76.20
3348;DHT22;1687;49.540;8.574;2024-02-14T02:26:09;8.50;76.40
3348;DHT22;1687;49.540;8.574;2024-02-14T02:28:36;8.40;76.30
3348;DHT22;1687;49.540;8.574;2024-02-14T02:31:02;8.40;76.30
3348;DHT22;1687;49.540;8.574;2024-02-14T02:33:27;8.30;76.40
3348;DHT22;1687;49.540;8.574;2024-02-14T02:35:53;8.30;76.30
3348;DHT22;1687;49.540;8.574;2024-02-14T02:38:19;8.30;76.70
3348;DHT22;1687;49.540;8.574;2024-02-14T02:40:47;8.40;76.80
3348;DHT22;1687;49.540;8.574;2024-02-14T02:43:12;8.50;77.00
3348;DHT22;1687;49.540;8.574;2024-02-14T02:45:38;8.50;76.70
3348;DHT22;1687;49.540;8.574;2024-02-14T02:48:04;8.50;76.90
3348;DHT22;1687;49.540;8.574;2024-02-14T02:50:31;8.50;77.00
3348;DHT22;1687;49.540;8.574;2024-02-14T02:52:56;8.50;76.80
3348;DHT22;1687;49.540;8.574;2024-02-14T02:55:22;8.40;76.90
3348;DHT22;1687;49.540;8.574;2024-02-14T02:57:48;8.50;77.20
3348;DHT22;1687;49.540;8.574;2024-02-14T03:00:14;8.50;76.90
3348;DHT22;1687;49.540;8.574;2024-02-14T03:02:41;8.60;77.30
3348;DHT22;1687;49.540;8.574;2024-02-14T03:05:10;8.60;76.90
3348;DHT22;1687;49.540;8.574;2024-02-14T03:07:43;8.60;77.00
3348;DHT22;1687;49.540;8.574;2024-02-14T03:10:10;8.60;77.30
3348;DHT22;1687;49.540;8.574;2024-02-14T03:12:39;8.50;77.10
3348;DHT22;1687;49.540;8.574;2024-02-14T03:15:05;8.60;77.50
3348;DHT22;1687;49.540;8.574;2024-02-14T03:17:31;8.60;77.50
3348;DHT22;1687;49.540;8.574;2024-02-14T03:19:57;8.70;77.70
3348;DHT22;1687;49.540;8.574;2024-02-14T03:22:22;8.80;77.60
3348;DHT22;1687;49.540;8.574;2024-02-14T03:24:48;8.80;77.50
3348;DHT22;1687;49.540;8.574;2024-02-14T03:27:14;8.80;77.80
3348;DHT22;1687;49.540;8.574;2024-02-14T03:29:42;8.80;77.50
3348;DHT22;1687;49.540;8.574;2024-02-14T03:32:09;8.80;77.80
3348;DHT22;1687;49.540;8.574;2024-02-14T03:34:35;8.90;77.80
3348;DHT22;1687;49.540;8.574;2024-02-14T03:37:03;8.90;77.70
3348;DHT22;1687;49.540;8.574;2024-02-14T03:39:29;8.90;77.70
3348;DHT22;1687;49.540;8.574;2024-02-14T03:41:56;8.90;77.80
3348;DHT22;1687;49.540;8.574;2024-02-14T03:44:22;9.00;78.10
3348;DHT22;1687;49.540;8.574;2024-02-14T03:46:49;9.00;78.10
3348;DHT22;1687;49.540;8.574;2024-02-14T03:49:14;9.00;77.60
3348;DHT22;1687;49.540;8.574;2024-02-14T03:51:40;9.00;78.10
3348;DHT22;1687;49.540;8.574;2024-02-14T03:54:06;9.00;77.90
3348;DHT22;1687;49.540;8.574;2024-02-14T03:56:31;9.00;77.90
3348;DHT22;1687;49.540;8.574;2024-02-14T03:59:00;9.00;78.10
3348;DHT22;1687;49.540;8.574;2024-02-14T04:01:26;9.10;78.10
3348;DHT22;1687;49.540;8.574;2024-02-14T04:03:52;9.10;78.10
3348;DHT22;1687;49.540;8.574;2024-02-14T04:06:18;9.00;77.80
3348;DHT22;1687;49.540;8.574;2024-02-14T04:08:44;9.00;77.90
3348;DHT22;1687;49.540;8.574;2024-02-14T04:11:10;9.00;77.90
3348;DHT22;1687;49.540;8.574;2024-02-14T04:13:37;8.90;77.70
3348;DHT22;1687;49.540;8.574;2024-02-14T04:16:03;8.90;77.90
3348;DHT22;1687;49.540;8.574;2024-02-14T04:18:29;8.80;77.70
3348;DHT22;1687;49.540;8.574;2024-02-14T04:20:55;8.90;78.10
3348;DHT22;1687;49.540;8.574;2024-02-14T04:23:21;8.90;78.10
3348;DHT22;1687;49.540;8.574;2024-02-14T04:25:47;8.90;78.10
3348;DHT22;1687;49.540;8.574;2024-02-14T04:28:13;8.90;78.00
3348;DHT22;1687;49.540;8.574;2024-02-14T04:30:39;8.90;78.10
3348;DHT22;1687;49.540;8.574;2024-02-14T04:33:07;8.80;78.10
3348;DHT22;1687;49.540;8.574;2024-02-14T04:35:33;8.90;78.30
3348;DHT22;1687;49.540;8.574;2024-02-14T04:37:59;8.90;78.30
3348;DHT22;1687;49.540;8.574;2024-02-14T04:40:24;8.90;78.20
3348;DHT22;1687;49.540;8.574;2024-02-14T04:42:50;9.00;78.40
3348;DHT22;1687;49.540;8.574;2024-02-14T04:45:16;9.00;78.30
3348;DHT22;1687;49.540;8.574;2024-02-14T04:47:42;9.00;78.20
3348;DHT22;1687;49.540;8.574;2024-02-14T04:50:08;9.00;78.30
3348;DHT22;1687;49.540;8.574;2024-02-14T04:52:34;9.00;78.20
3348;DHT22;1687;49.540;8.574;2024-02-14T04:54:59;8.90;78.10
3348;DHT22;1687;49.540;8.574;2024-02-14T04:57:25;8.80;78.20
3348;DHT22;1687;49.540;8.574;2024-02-14T04:59:51;8.80;78.20
3348;DHT22;1687;49.540;8.574;2024-02-14T05:02:17;8.80;78.40
3348;DHT22;1687;49.540;8.574;2024-02-14T05:04:43;8.90;78.60
3348;DHT22;1687;49.540;8.574;2024-02-14T05:07:09;9.00;78.70
3348;DHT22;1687;49.540;8.574;2024-02-14T05:09:34;9.00;78.50
3348;DHT22;1687;49.540;8.574;2024-02-14T05:12:00;9.00;78.70
3348;DHT22;1687;49.540;8.574;2024-02-14T05:14:26;9.10;78.90
3348;DHT22;1687;49.540;8.574;2024-02-14T05:16:55;9.20;78.90
3348;DHT22;1687;49.540;8.574;2024-02-14T05:19:21;9.20;78.70
3348;DHT22;1687;49.540;8.574;2024-02-14T05:21:47;9.20;78.70
3348;DHT22;1687;49.540;8.574;2024-02-14T05:24:12;9.20;78.60
3348;DHT22;1687;49.540;8.574;2024-02-14T05:26:38;9.20;78.80
3348;DHT22;1687;49.540;8.574;2024-02-14T05:29:04;9.10;78.50
3348;DHT22;1687;49.540;8.574;2024-02-14T05:31:43;9.00;78.40
3348;DHT22;1687;49.540;8.574;2024-02-14T05:34:10;9.00;78.60
3348;DHT22;1687;49.540;8.574;2024-02-14T05:36:35;8.90;78.40
3348;DHT22;1687;49.540;8.574;2024-02-14T05:39:02;8.90;78.60
3348;DHT22;1687;49.540;8.574;2024-02-14T05:41:28;8.90;79.30
3348;DHT22;1687;49.540;8.574;2024-02-14T05:43:54;8.90;78.80
3348;DHT22;1687;49.540;8.574;2024-02-14T05:46:19;9.00;78.90
3348;DHT22;1687;49.540;8.574;2024-02-14T05:48:46;9.00;79.00
3348;DHT22;1687;49.540;8.574;2024-02-14T05:51:12;9.00;79.10
3348;DHT22;1687;49.540;8.574;2024-02-14T05:53:37;9.10;79.10
3348;DHT22;1687;49.540;8.574;2024-02-14T05:56:03;9.10;79.20
3348;DHT22;1687;49.540;8.574;2024-02-14T05:58:29;9.10;79.20
3348;DHT22;1687;49.540;8.574;2024-02-14T06:00:55;9.10;79.10
3348;DHT22;1687;49.540;8.574;2024-02-14T06:03:21;9.10;79.30
3348;DHT22;1687;49.540;8.574;2024-02-14T06:05:47;9.10;79.20
3348;DHT22;1687;49.540;8.574;2024-02-14T06:08:13;9.10;79.30
3348;DHT22;1687;49.540;8.574;2024-02-14T06:10:39;9.20;79.70
3348;DHT22;1687;49.540;8.574;2024-02-14T06:13:05;9.30;79.80
3348;DHT22;1687;49.540;8.574;2024-02-14T06:15:31;9.40;79.70
3348;DHT22;1687;49.540;8.574;2024-02-14T06:17:56;9.40;79.80
3348;DHT22;1687;49.540;8.574;2024-02-14T06:20:23;9.50;79.70
3348;DHT22;1687;49.540;8.574;2024-02-14T06:22:48;9.60;79.90
3348;DHT22;1687;49.540;8.574;2024-02-14T06:25:14;9.60;79.70
3348;DHT22;1687;49.540;8.574;2024-02-14T06:27:41;9.60;79.60
3348;DHT22;1687;49.540;8.574;2024-02-14T06:30:08;9.50;79.50
3348;DHT22;1687;49.540;8.574;2024-02-14T06:32:34;9.50;79.60
3348;DHT22;1687;49.540;8.574;2024-02-14T06:35:00;9.50;79.60
3348;DHT22;1687;49.540;8.574;2024-02-14T06:37:25;9.40;79.50
3348;DHT22;1687;49.540;8.574;2024-02-14T06:39:51;9.50;79.90
3348;DHT22;1687;49.540;8.574;2024-02-14T06:42:17;9.50;79.90
3348;DHT22;1687;49.540;8.574;2024-02-14T06:44:43;9.60;80.00
3348;DHT22;1687;49.540;8.574;2024-02-14T06:47:08;9.60;79.90
3348;DHT22;1687;49.540;8.574;2024-02-14T06:49:34;9.60;79.80
3348;DHT22;1687;49.540;8.574;2024-02-14T06:52:00;9.60;80.10
3348;DHT22;1687;49.540;8.574;2024-02-14T06:54:26;9.60;79.70
3348;DHT22;1687;49.540;8.574;2024-02-14T06:56:51;9.50;79.60
3348;DHT22;1687;49.540;8.574;2024-02-14T06:59:17;9.50;79.60
3348;DHT22;1687;49.540;8.574;2024-02-14T07:01:43;9.50;79.90
3348;DHT22;1687;49.540;8.574;2024-02-14T07:04:08;9.50;80.00
3348;DHT22;1687;49.540;8.574;2024-02-14T07:06:34;9.50;79.80
3348;DHT22;1687;49.540;8.574;2024-02-14T07:09:00;9.50;80.10
3348;DHT22;1687;49.540;8.574;2024-02-14T07:11:25;9.60;80.30
3348;DHT22;1687;49.540;8.574;2024-02-14T07:13:51;9.60;79.80
3348;DHT22;1687;49.540;8.574;2024-02-14T07:16:17;9.60;80.10
3348;DHT22;1687;49.540;8.574;2024-02-14T07:18:43;9.60;80.20
3348;DHT22;1687;49.540;8.574;2024-02-14T07:21:08;9.70;80.60
3348;DHT22;1687;49.540;8.574;2024-02-14T07:23:34;9.80;81.30
3348;DHT22;1687;49.540;8.574;2024-02-14T07:26:00;9.80;80.30
3348;DHT22;1687;49.540;8.574;2024-02-14T07:28:28;9.70;79.90
3348;DHT22;1687;49.540;8.574;2024-02-14T07:30:54;9.70;80.30
3348;DHT22;1687;49.540;8.574;2024-02-14T07:33:20;9.70;80.50
3348;DHT22;1687;49.540;8.574;2024-02-14T07:35:46;9.80;80.50
3348;DHT22;1687;49.540;8.574;2024-02-14T07:38:13;9.90;80.70
3348;DHT22;1687;49.540;8.574;2024-02-14T07:40:38;9.90;80.60
3348;DHT22;1687;49.540;8.574;2024-02-14T07:43:05;9.90;80.40
3348;DHT22;1687;49.540;8.574;2024-02-14T07:45:32;10.00;79.40
3348;DHT22;1687;49.540;8.574;2024-02-14T07:47:58;10.00;79.60
3348;DHT22;1687;49.540;8.574;2024-02-14T07:50:23;10.00;79.20
3348;DHT22;1687;49.540;8.574;2024-02-14T07:52:49;10.10;79.80
3348;DHT22;1687;49.540;8.574;2024-02-14T07:55:15;10.20;79.80
3348;DHT22;1687;49.540;8.574;2024-02-14T07:57:41;10.20;79.60
3348;DHT22;1687;49.540;8.574;2024-02-14T08:00:08;10.20;79.70
3348;DHT22;1687;49.540;8.574;2024-02-14T08:02:35;10.20;79.40
3348;DHT22;1687;49.540;8.574;2024-02-14T08:05:01;10.20;79.70
3348;DHT22;1687;49.540;8.574;2024-02-14T08:07:27;10.20;79.80
3348;DHT22;1687;49.540;8.574;2024-02-14T08:09:54;10.20;79.70
3348;DHT22;1687;49.540;8.574;2024-02-14T08:12:20;10.20;79.60
3348;DHT22;1687;49.540;8.574;2024-02-14T08:14:46;10.20;79.70
3348;DHT22;1687;49.540;8.574;2024-02-14T08:17:12;10.30;80.00
3348;DHT22;1687;49.540;8.574;2024-02-14T08:19:38;10.30;79.80
3348;DHT22;1687;49.540;8.574;2024-02-14T08:22:05;10.30;79.80
3348;DHT22;1687;49.540;8.574;2024-02-14T08:24:31;10.30;80.10
3348;DHT22;1687;49.540;8.574;2024-02-14T08:26:57;10.30;80.00
3348;DHT22;1687;49.540;8.574;2024-02-14T08:29:22;10.40;80.30
3348;DHT22;1687;49.540;8.574;2024-02-14T08:31:48;10.40;80.50
3348;DHT22;1687;49.540;8.574;2024-02-14T08:34:15;10.50;80.30
3348;DHT22;1687;49.540;8.574;2024-02-14T08:36:41;10.50;80.40
3348;DHT22;1687;49.540;8.574;2024-02-14T08:39:08;10.50;80.50
3348;DHT22;1687;49.540;8.574;2024-02-14T08:41:38;10.60;80.90
3348;DHT22;1687;49.540;8.574;2024-02-14T08:44:06;10.70;81.10
3348;DHT22;1687;49.540;8.574;2024-02-14T08:46:32;10.80;81.10
3348;DHT22;1687;49.540;8.574;2024-02-14T08:49:00;10.80;80.90
3348;DHT22;1687;49.540;8.574;2024-02-14T08:51:28;10.80;81.10
3348;DHT22;1687;49.540;8.574;2024-02-14T08:53:54;10.80;81.90
3348;DHT22;1687;49.540;8.574;2024-02-14T08:56:23;10.90;81.30
3348;DHT22;1687;49.540;8.574;2024-02-14T08:58:49;10.90;81.50
3348;DHT22;1687;49.540;8.574;2024-02-14T09:01:15;11.00;81.60
3348;DHT22;1687;49.540;8.574;2024-02-14T09:03:44;11.00;81.50
3348;DHT22;1687;49.540;8.574;2024-02-14T09:06:14;11.00;81.10
3348;DHT22;1687;49.540;8.574;2024-02-14T09:08:41;10.90;81.00
3348;DHT22;1687;49.540;8.574;2024-02-14T09:11:06;10.80;82.10
3348;DHT22;1687;49.540;8.574;2024-02-14T09:13:33;10.90;81.90
3348;DHT22;1687;49.540;8.574;2024-02-14T09:15:58;11.00;81.90
3348;DHT22;1687;49.540;8.574;2024-02-14T09:18:25;11.00;81.60
3348;DHT22;1687;49.540;8.574;2024-02-14T09:20:51;11.00;82.30
3348;DHT22;1687;49.540;8.574;2024-02-14T09:23:17;11.10;82.50
3348;DHT22;1687;49.540;8.574;2024-02-14T09:25:48;11.30;82.80
3348;DHT22;1687;49.540;8.574;2024-02-14T09:28:15;11.30;82.80
3348;DHT22;1687;49.540;8.574;2024-02-14T09:30:41;11.50;82.90
3348;DHT22;1687;49.540;8.574;2024-02-14T09:33:07;11.60;83.20
3348;DHT22;1687;49.540;8.574;2024-02-14T09:35:33;11.70;83.40
3348;DHT22;1687;49.540;8.574;2024-02-14T09:38:00;11.70;83.10
3348;DHT22;1687;49.540;8.574;2024-02-14T09:40:26;11.80;83.10
3348;DHT22;1687;49.540;8.574;2024-02-14T09:42:55;11.80;83.30
3348;DHT22;1687;49.540;8.574;2024-02-14T09:45:26;11.80;83.60
3348;DHT22;1687;49.540;8.574;2024-02-14T09:47:53;11.90;83.60
3348;DHT22;1687;49.540;8.574;2024-02-14T09:50:20;12.00;84.20
3348;DHT22;1687;49.540;8.574;2024-02-14T09:52:49;12.10;83.70
3348;DHT22;1687;49.540;8.574;2024-02-14T09:55:15;12.10;83.80
3348;DHT22;1687;49.540;8.574;2024-02-14T09:57:42;12.10;84.20
3348;DHT22;1687;49.540;8.574;2024-02-14T10:00:12;12.10;83.60
3348;DHT22;1687;49.540;8.574;2024-02-14T10:02:40;12.10;84.00
3348;DHT22;1687;49.540;8.574;2024-02-14T10:05:07;12.20;84.40
3348;DHT22;1687;49.540;8.574;2024-02-14T10:07:43;12.10;84.00
3348;DHT22;1687;49.540;8.574;2024-02-14T10:10:10;12.10;84.00
3348;DHT22;1687;49.540;8.574;2024-02-14T10:12:36;12.10;83.90
3348;DHT22;1687;49.540;8.574;2024-02-14T10:15:02;12.20;84.80
3348;DHT22;1687;49.540;8.574;2024-02-14T10:17:29;12.30;84.70
3348;DHT22;1687;49.540;8.574;2024-02-14T10:19:57;12.40;84.70
3348;DHT22;1687;49.540;8.574;2024-02-14T10:22:23;12.40;84.80
3348;DHT22;1687;49.540;8.574;2024-02-14T10:24:50;12.40;84.90
3348;DHT22;1687;49.540;8.574;2024-02-14T10:27:17;12.30;84.30
3348;DHT22;1687;49.540;8.574;2024-02-14T10:29:42;12.30;84.70
3348;DHT22;1687;49.540;8.574;2024-02-14T10:32:09;12.20;84.50
3348;DHT22;1687;49.540;8.574;2024-02-14T10:34:37;12.20;84.60
3348;DHT22;1687;49.540;8.574;2024-02-14T10:37:04;12.20;84.80
3348;DHT22;1687;49.540;8.574;2024-02-14T10:39:32;12.20;84.70
3348;DHT22;1687;49.540;8.574;2024-02-14T10:42:01;12.30;85.30
3348;DHT22;1687;49.540;8.574;2024-02-14T10:44:28;12.30;85.30
3348;DHT22;1687;49.540;8.574;2024-02-14T10:46:55;12.30;85.00
3348;DHT22;1687;49.540;8.574;2024-02-14T10:49:22;12.30;85.50
3348;DHT22;1687;49.540;8.574;2024-02-14T10:51:50;12.40;85.80
3348;DHT22;1687;49.540;8.574;2024-02-14T10:54:19;12.40;85.60
3348;DHT22;1687;49.540;8.574;2024-02-14T10:56:48;12.40;85.70
3348;DHT22;1687;49.540;8.574;2024-02-14T10:59:18;12.50;85.60
3348;DHT22;1687;49.540;8.574;2024-02-14T11:01:45;12.50;85.40
3348;DHT22;1687;49.540;8.574;2024-02-14T11:04:12;12.50;85.40
3348;DHT22;1687;49.540;8.574;2024-02-14T11:06:48;12.30;84.60
3348;DHT22;1687;49.540;8.574;2024-02-14T11:09:14;12.20;85.30
3348;DHT22;1687;49.540;8.574;2024-02-14T11:11:44;12.20;85.90
3348;DHT22;1687;49.540;8.574;2024-02-14T11:14:10;12.20;85.70
3348;DHT22;1687;49.540;8.574;2024-02-14T11:16:40;12.30;86.70
3348;DHT22;1687;49.540;8.574;2024-02-14T11:19:10;12.40;86.40
3348;DHT22;1687;49.540;8.574;2024-02-14T11:21:43;12.40;86.00
3348;DHT22;1687;49.540;8.574;2024-02-14T11:24:11;12.30;86.30
3348;DHT22;1687;49.540;8.574;2024-02-14T11:29:15;12.50;86.70
3348;DHT22;1687;49.540;8.574;2024-02-14T11:31:44;12.50;86.60
3348;DHT22;1687;49.540;8.574;2024-02-14T11:34:12;12.40;87.00
3348;DHT22;1687;49.540;8.574;2024-02-14T11:36:41;12.50;87.40
3348;DHT22;1687;49.540;8.574;2024-02-14T11:39:07;12.50;87.30
3348;DHT22;1687;49.540;8.574;2024-02-14T11:41:33;12.50;87.00
3348;DHT22;1687;49.540;8.574;2024-02-14T11:44:03;12.50;87.90
3348;DHT22;1687;49.540;8.574;2024-02-14T11:46:35;12.60;88.10
3348;DHT22;1687;49.540;8.574;2024-02-14T11:49:04;12.70;87.80
3348;DHT22;1687;49.540;8.574;2024-02-14T11:51:31;12.80;88.10
3348;DHT22;1687;49.540;8.574;2024-02-14T11:53:59;12.90;88.60
3348;DHT22;1687;49.540;8.574;2024-02-14T11:56:41;13.00;87.80
3348;DHT22;1687;49.540;8.574;2024-02-14T11:59:07;13.00;88.30
3348;DHT22;1687;49.540;8.574;2024-02-14T12:01:36;13.20;88.30
3348;DHT22;1687;49.540;8.574;2024-02-14T12:04:05;13.30;88.30
3348;DHT22;1687;49.540;8.574;2024-02-14T12:06:35;13.30;87.60
3348;DHT22;1687;49.540;8.574;2024-02-14T12:09:02;13.30;87.90
3348;DHT22;1687;49.540;8.574;2024-02-14T12:11:33;13.30;88.60
3348;DHT22;1687;49.540;8.574;2024-02-14T12:14:08;13.40;88.90
3348;DHT22;1687;49.540;8.574;2024-02-14T12:16:37;13.50;88.50
3348;DHT22;1687;49.540;8.574;2024-02-14T12:19:07;13.50;88.30
3348;DHT22;1687;49.540;8.574;2024-02-14T12:21:35;13.50;87.90
3348;DHT22;1687;49.540;8.574;2024-02-14T12:24:01;13.40;87.80
3348;DHT22;1687;49.540;8.574;2024-02-14T12:26:29;13.40;88.20
3348;DHT22;1687;49.540;8.574;2024-02-14T12:28:55;13.50;89.40
3348;DHT22;1687;49.540;8.574;2024-02-14T12:31:24;13.80;90.10
3348;DHT22;1687;49.540;8.574;2024-02-14T12:33:51;14.10;90.20
3348;DHT22;1687;49.540;8.574;2024-02-14T12:36:20;14.30;89.70
3348;DHT22;1687;49.540;8.574;2024-02-14T12:38:45;14.30;88.60
3348;DHT22;1687;49.540;8.574;2024-02-14T12:41:11;14.30;88.60
3348;DHT22;1687;49.540;8.574;2024-02-14T12:43:36;14.20;88.30
3348;DHT22;1687;49.540;8.574;2024-02-14T12:46:02;14.20;88.40
3348;DHT22;1687;49.540;8.574;2024-02-14T12:48:29;14.20;88.30
3348;DHT22;1687;49.540;8.574;2024-02-14T12:50:55;14.20;88.60
3348;DHT22;1687;49.540;8.574;2024-02-14T12:53:23;14.10;87.40
3348;DHT22;1687;49.540;8.574;2024-02-14T12:55:49;13.80;87.60
3348;DHT22;1687;49.540;8.574;2024-02-14T12:58:15;13.80;88.30
3348;DHT22;1687;49.540;8.574;2024-02-14T13:00:41;13.80;88.40
3348;DHT22;1687;49.540;8.574;2024-02-14T13:03:08;13.80;88.10
3348;DHT22;1687;49.540;8.574;2024-02-14T13:05:36;13.70;88.30
3348;DHT22;1687;49.540;8.574;2024-02-14T13:08:02;13.70;88.40
3348;DHT22;1687;49.540;8.574;2024-02-14T13:10:28;13.70;88.80
3348;DHT22;1687;49.540;8.574;2024-02-14T13:12:56;13.70;87.80
3348;DHT22;1687;49.540;8.574;2024-02-14T13:15:22;13.60;88.20
3348;DHT22;1687;49.540;8.574;2024-02-14T13:17:48;13.50;88.50
3348;DHT22;1687;49.540;8.574;2024-02-14T13:20:14;13.50;88.10
3348;DHT22;1687;49.540;8.574;2024-02-14T13:22:43;13.50;89.00
3348;DHT22;1687;49.540;8.574;2024-02-14T13:25:09;13.60;88.40
3348;DHT22;1687;49.540;8.574;2024-02-14T13:27:35;13.60;89.00
3348;DHT22;1687;49.540;8.574;2024-02-14T13:30:01;13.60;89.40
3348;DHT22;1687;49.540;8.574;2024-02-14T13:32:27;13.70;89.30
3348;DHT22;1687;49.540;8.574;2024-02-14T13:34:53;13.80;89.80
3348;DHT22;1687;49.540;8.574;2024-02-14T13:37:19;13.80;89.70
3348;DHT22;1687;49.540;8.574;2024-02-14T13:39:45;13.90;90.10
3348;DHT22;1687;49.540;8.574;2024-02-14T13:42:10;14.00;90.10
3348;DHT22;1687;49.540;8.574;2024-02-14T13:44:36;14.00;90.10
3348;DHT22;1687;49.540;8.574;2024-02-14T13:47:02;14.10;89.80
3348;DHT22;1687;49.540;8.574;2024-02-14T13:49:28;14.00;90.10
3348;DHT22;1687;49.540;8.574;2024-02-14T13:51:54;14.10;90.20
3348;DHT22;1687;49.540;8.574;2024-02-14T13:54:20;14.10;90.00
3348;DHT22;1687;49.540;8.574;2024-02-14T13:56:47;14.10;89.80
3348;DHT22;1687;49.540;8.574;2024-02-14T13:59:15;14.00;89.60
3348;DHT22;1687;49.540;8.574;2024-02-14T14:01:42;14.00;89.40
3348;DHT22;1687;49.540;8.574;2024-02-14T14:04:08;13.90;90.00
3348;DHT22;1687;49.540;8.574;2024-02-14T14:06:34;13.90;90.10
3348;DHT22;1687;49.540;8.574;2024-02-14T14:09:00;13.90;90.20
3348;DHT22;1687;49.540;8.574;2024-02-14T14:11:28;14.00;90.40
3348;DHT22;1687;49.540;8.574;2024-02-14T14:13:53;14.00;90.40
3348;DHT22;1687;49.540;8.574;2024-02-14T14:16:19;13.90;90.20
3348;DHT22;1687;49.540;8.574;2024-02-14T14:18:48;14.00;90.60
3348;DHT22;1687;49.540;8.574;2024-02-14T14:21:14;14.10;90.70
3348;DHT22;1687;49.540;8.574;2024-02-14T14:23:40;14.20;90.50
3348;DHT22;1687;49.540;8.574;2024-02-14T14:26:06;14.00;90.30
3348;DHT22;1687;49.540;8.574;2024-02-14T14:28:32;14.00;90.40
3348;DHT22;1687;49.540;8.574;2024-02-14T14:30:57;14.00;90.40
3348;DHT22;1687;49.540;8.574;2024-02-14T14:33:25;13.90;90.50
3348;DHT22;1687;49.540;8.574;2024-02-14T14:35:51;14.00;90.70
3348;DHT22;1687;49.540;8.574;2024-02-14T14:38:20;14.00;90.70
3348;DHT22;1687;49.540;8.574;2024-02-14T14:40:47;14.00;90.60
3348;DHT22;1687;49.540;8.574;2024-02-14T14:43:13;13.90;90.50
3348;DHT22;1687;49.540;8.574;2024-02-14T14:45:39;13.80;90.50
3348;DHT22;1687;49.540;8.574;2024-02-14T14:48:07;13.80;90.50
3348;DHT22;1687;49.540;8.574;2024-02-14T14:50:35;13.70;90.70
3348;DHT22;1687;49.540;8.574;2024-02-14T14:53:01;13.70;91.00
3348;DHT22;1687;49.540;8.574;2024-02-14T14:55:55;13.70;91.00
3348;DHT22;1687;49.540;8.574;2024-02-14T14:58:23;13.70;91.10
3348;DHT22;1687;49.540;8.574;2024-02-14T15:00:56;13.80;91.30
3348;DHT22;1687;49.540;8.574;2024-02-14T15:03:22;13.80;91.00
3348;DHT22;1687;49.540;8.574;2024-02-14T15:05:48;13.80;91.30
3348;DHT22;1687;49.540;8.574;2024-02-14T15:08:14;13.80;91.30
3348;DHT22;1687;49.540;8.574;2024-02-14T15:10:40;13.80;91.40
3348;DHT22;1687;49.540;8.574;2024-02-14T15:13:08;13.80;91.10
3348;DHT22;1687;49.540;8.574;2024-02-14T15:15:35;13.70;91.10
3348;DHT22;1687;49.540;8.574;2024-02-14T15:18:01;13.60;91.00
3348;DHT22;1687;49.540;8.574;2024-02-14T15:20:27;13.50;91.40
3348;DHT22;1687;49.540;8.574;2024-02-14T15:22:55;13.50;91.50
3348;DHT22;1687;49.540;8.574;2024-02-14T15:25:21;13.50;91.90
3348;DHT22;1687;49.540;8.574;2024-02-14T15:27:47;13.50;91.60
3348;DHT22;1687;49.540;8.574;2024-02-14T15:30:26;13.40;91.90
3348;DHT22;1687;49.540;8.574;2024-02-14T15:33:12;13.40;92.40
3348;DHT22;1687;49.540;8.574;2024-02-14T15:35:51;13.50;92.90
3348;DHT22;1687;49.540;8.574;2024-02-14T15:38:21;13.50;93.00
3348;DHT22;1687;49.540;8.574;2024-02-14T15:40:48;13.70;93.40
3348;DHT22;1687;49.540;8.574;2024-02-14T15:43:18;13.70;93.30
3348;DHT22;1687;49.540;8.574;2024-02-14T15:45:47;13.70;93.30
3348;DHT22;1687;49.540;8.574;2024-02-14T15:48:13;13.70;93.30
3348;DHT22;1687;49.540;8.574;2024-02-14T15:50:41;13.60;93.10
3348;DHT22;1687;49.540;8.574;2024-02-14T15:53:09;13.60;93.50
3348;DHT22;1687;49.540;8.574;2024-02-14T15:55:34;13.70;93.80
3348;DHT22;1687;49.540;8.574;2024-02-14T15:58:01;13.70;93.60
3348;DHT22;1687;49.540;8.574;2024-02-14T16:00:27;13.50;93.40
3348;DHT22;1687;49.540;8.574;2024-02-14T16:02:55;13.40;93.70
3348;DHT22;1687;49.540;8.574;2024-02-14T16:05:21;13.40;94.10
3348;DHT22;1687;49.540;8.574;2024-02-14T16:07:48;13.40;94.30
3348;DHT22;1687;49.540;8.574;2024-02-14T16:10:14;13.40;94.30